Twin Lakes, Idaho
Current Conditions -  °F | °C
As of 8:35 AM on Saturday 22 Nov 2014 (Local Time) from KCOE Reporting Station
Clear Clear  
Wind Chill: 32°   Ceiling: Unl
Heat Index: 36°   Visibility: 10mi
Dew Point: 30°   Wind: 5mph
Humidity: 81%   Direction: 240°WSW
Pressure: 29.6"   Gusts: NA
Location:  47.8426°N, 116.907°W
Report Text: KCOE 221635Z AUTO 24004KT 10SM CLR 02/M01 A2960 RMK AO1
Loading
Personal Weather Stations






























Interactive Weather Map New forecast layout! Learn more

10-Day Weather Forecast

Advertisements
Track Severe Weather on mobile